Time;durP1;ratioP1;P1;durP2;ratioP2;P2;SDS_P1;SDS_P2;PMS_P1;PMS_P2;Temp;Humidity;BMP_temperature;BMP_pressure;BME280_temperature;BME280_humidity;BME280_pressure;Samples;Min_cycle;Max_cycle;Signal;HPM_P1;HPM_P2
2023/09/26 00:01:38;;;;;;;12.70;9.93;;;;;;;14.58;69.25;102023.06;15610932;28;20064;-53
2023/09/26 00:09:12;;;;;;;13.30;9.88;;;;;;;14.48;69.52;102020.75;15608515;28;20041;-52
2023/09/26 00:16:45;;;;;;;11.75;9.45;;;;;;;14.46;69.63;102020.94;15610816;28;20048;-49
2023/09/26 00:24:20;;;;;;;11.05;8.80;;;;;;;14.41;69.40;102014.44;15570922;23;20117;-51
2023/09/26 00:31:54;;;;;;;11.95;9.77;;;;;;;14.32;70.19;102005.72;15547102;28;20419;-51
2023/09/26 00:39:30;;;;;;;12.10;10.52;;;;;;;14.37;70.30;102005.94;15535864;28;20050;-49
2023/09/26 00:47:03;;;;;;;13.60;11.35;;;;;;;14.46;70.19;102003.88;15551809;28;20038;-48
2023/09/26 00:54:38;;;;;;;12.77;10.73;;;;;;;14.45;70.50;102002.19;15562208;28;20133;-49
2023/09/26 01:02:12;;;;;;;14.48;11.48;;;;;;;14.41;70.67;102000.94;15562321;28;20392;-50
2023/09/26 01:09:47;;;;;;;16.77;10.95;;;;;;;14.30;70.89;101997.81;15562884;28;20475;-51
2023/09/26 01:17:20;;;;;;;14.95;10.82;;;;;;;14.37;70.22;101989.75;15556940;28;20486;-50
2023/09/26 01:24:57;;;;;;;13.65;10.60;;;;;;;14.37;70.56;101991.63;15563610;28;20042;-49
2023/09/26 01:32:30;;;;;;;17.40;11.50;;;;;;;14.30;70.78;101989.72;15562039;28;20080;-50
2023/09/26 01:40:09;;;;;;;13.73;11.88;;;;;;;14.32;70.58;101989.53;15561216;28;20034;-53
2023/09/26 01:47:47;;;;;;;14.48;11.68;;;;;;;14.31;70.57;101979.72;15560695;28;20045;-48
2023/09/26 01:55:22;;;;;;;15.68;11.95;;;;;;;14.20;70.90;101977.63;15560505;28;20499;-50
2023/09/26 02:02:57;;;;;;;12.80;11.27;;;;;;;14.21;70.62;101968.50;15558538;28;20566;-52
2023/09/26 02:10:32;;;;;;;14.73;12.18;;;;;;;14.07;70.96;101961.41;15560522;28;20096;-45
2023/09/26 02:18:06;;;;;;;14.13;12.43;;;;;;;14.10;70.31;101972.63;15558858;28;20143;-44
2023/09/26 02:25:41;;;;;;;15.73;12.95;;;;;;;14.06;70.34;101975.94;15559579;28;20132;-45
2023/09/26 02:33:14;;;;;;;16.88;12.65;;;;;;;14.02;71.27;101986.31;15542148;28;20077;-45
2023/09/26 02:40:51;;;;;;;18.63;14.23;;;;;;;14.02;70.64;101986.31;15558823;28;20040;-45
2023/09/26 02:48:24;;;;;;;17.30;14.20;;;;;;;13.83;70.77;101982.50;15557457;28;20133;-46
2023/09/26 02:55:59;;;;;;;19.10;15.20;;;;;;;13.85;71.06;101982.28;15557168;28;20053;-47
2023/09/26 03:03:32;;;;;;;44.65;29.67;;;;;;;13.92;71.64;101980.47;15556262;28;20042;-44
2023/09/26 03:11:07;;;;;;;184.10;104.38;;;;;;;13.97;71.59;101981.50;15539530;28;20042;-47
2023/09/26 03:18:40;;;;;;;299.70;148.18;;;;;;;13.89;72.01;101981.69;15554326;28;20056;-51
2023/09/26 03:26:15;;;;;;;337.20;176.70;;;;;;;14.01;71.63;101976.56;15555453;28;20045;-46
2023/09/26 03:33:50;;;;;;;311.70;151.07;;;;;;;14.09;71.52;101962.88;15554514;28;20506;-46
2023/09/26 03:41:27;;;;;;;282.85;129.05;;;;;;;13.98;71.35;101955.34;15555361;28;20137;-47
2023/09/26 03:49:02;;;;;;;238.18;107.07;;;;;;;13.86;71.65;101955.13;15555267;28;20054;-45
2023/09/26 03:56:36;;;;;;;148.98;69.05;;;;;;;13.74;71.29;101954.03;15552917;28;20129;-53
2023/09/26 04:04:10;;;;;;;119.03;54.95;;;;;;;13.53;71.41;101949.59;15554620;28;20057;-45
2023/09/26 04:11:44;;;;;;;145.77;65.55;;;;;;;13.47;71.19;101958.44;15554285;28;20206;-48
2023/09/26 04:19:18;;;;;;;182.57;82.40;;;;;;;13.45;71.42;101952.44;15554324;28;20062;-48
2023/09/26 04:26:53;;;;;;;;;;;;;;;13.38;71.73;101949.72;15554654;28;20050;-48
2023/09/26 04:34:29;;;;;;;121.30;59.42;;;;;;;13.40;71.57;101944.13;15552330;28;20437;-47
2023/09/26 04:42:03;;;;;;;137.75;67.47;;;;;;;13.38;71.12;101947.03;15552057;28;20510;-45
2023/09/26 04:49:39;;;;;;;132.27;61.75;;;;;;;13.21;71.35;101943.78;15552782;28;20074;-44
2023/09/26 04:57:13;;;;;;;109.25;52.03;;;;;;;13.01;72.33;101948.22;15551478;28;20289;-45
2023/09/26 05:04:48;;;;;;;135.32;58.83;;;;;;;13.04;71.75;101926.22;15552466;28;20042;-45
2023/09/26 05:12:23;;;;;;;102.53;49.13;;;;;;;12.95;71.87;101901.28;15551651;28;20134;-47
2023/09/26 05:19:56;;;;;;;109.18;56.40;;;;;;;13.23;72.49;101927.41;15551681;28;20468;-44
2023/09/26 05:27:31;;;;;;;162.75;77.82;;;;;;;13.39;72.93;101939.75;15551982;28;20049;-52
2023/09/26 05:35:06;;;;;;;141.02;67.88;;;;;;;13.55;73.36;101942.09;15551743;28;20217;-46
2023/09/26 05:42:41;;;;;;;86.25;41.28;;;;;;;13.66;73.96;101938.00;15562086;28;20048;-47
2023/09/26 05:50:14;;;;;;;79.18;32.97;;;;;;;13.83;74.76;101943.88;15559199;28;20124;-45
2023/09/26 05:57:48;;;;;;;;;;;;;;;13.63;76.42;101947.34;15560366;28;20054;-48
2023/09/26 06:05:25;;;;;;;60.85;23.73;;;;;;;13.81;75.85;101949.50;15561233;28;19926;-44
2023/09/26 06:13:00;;;;;;;64.28;23.05;;;;;;;13.53;77.38;101954.97;15553301;28;20038;-48
2023/09/26 06:20:38;;;;;;;158.52;79.25;;;;;;;14.03;76.40;101955.56;15553822;28;20054;-50
2023/09/26 06:28:12;;;;;;;40.58;23.83;;;;;;;14.09;76.08;101953.94;15560175;28;20050;-48
2023/09/26 06:35:46;;;;;;;62.20;22.15;;;;;;;14.11;75.88;101952.69;15559691;28;20061;-49
2023/09/26 06:43:20;;;;;;;77.55;21.90;;;;;;;14.24;75.59;101952.72;15558652;28;20040;-50
2023/09/26 06:50:53;;;;;;;42.95;22.65;;;;;;;14.67;74.92;101946.16;15556948;28;20046;-50
2023/09/26 06:58:28;;;;;;;51.00;22.67;;;;;;;14.50;75.81;101935.75;15559298;28;20046;-51
2023/09/26 07:06:09;;;;;;;45.53;24.40;;;;;;;14.78;74.84;101950.91;15557579;28;20551;-50
2023/09/26 07:13:43;;;;;;;49.58;25.23;;;;;;;14.71;75.28;101947.41;15550267;28;20285;-51
2023/09/26 07:21:17;;;;;;;72.88;27.02;;;;;;;14.89;75.39;101947.59;15554673;28;20068;-50
2023/09/26 07:28:52;;;;;;;36.00;26.60;;;;;;;14.89;75.74;101957.59;15555505;28;20530;-51
2023/09/26 07:36:25;;;;;;;60.35;27.88;;;;;;;15.12;76.06;101957.16;15556260;28;20096;-50
2023/09/26 07:43:59;;;;;;;37.42;28.48;;;;;;;15.38;75.38;101954.38;15537972;28;20068;-52
2023/09/26 07:51:33;;;;;;;31.17;24.80;;;;;;;15.82;74.59;101948.22;15555106;28;20060;-48
2023/09/26 07:59:09;;;;;;;26.83;23.48;;;;;;;15.76;74.66;101961.75;15552563;28;20080;-51
2023/09/26 08:06:45;;;;;;;24.77;22.10;;;;;;;16.24;73.56;101975.69;15554449;28;20042;-51
2023/09/26 08:14:21;;;;;;;26.50;21.58;;;;;;;15.95;74.25;101969.00;15554414;28;20069;-51
2023/09/26 08:22:00;;;;;;;23.25;19.92;;;;;;;17.17;72.14;101971.47;15553866;28;20129;-50
2023/09/26 08:29:35;;;;;;;43.78;28.20;;;;;;;17.96;69.35;101958.88;15553546;28;20050;-51
2023/09/26 08:37:10;;;;;;;18.13;15.77;;;;;;;18.28;67.37;101954.84;15554025;28;20053;-50
2023/09/26 08:44:44;;;;;;;18.50;16.60;;;;;;;18.70;66.54;101954.00;15552990;28;20037;-50
2023/09/26 08:52:18;;;;;;;16.85;15.05;;;;;;;19.33;65.84;101948.69;15552218;28;20053;-50
2023/09/26 08:59:55;;;;;;;17.15;15.35;;;;;;;19.75;63.19;101940.31;15550824;28;20046;-51
2023/09/26 09:07:32;;;;;;;16.42;13.90;;;;;;;20.65;60.78;101941.41;15535556;28;20104;-50
2023/09/26 09:15:20;;;;;;;16.65;13.82;;;;;;;20.50;60.88;101938.44;15560896;28;20041;-50
2023/09/26 09:22:59;;;;;;;15.48;12.10;;;;;;;21.17;60.55;101932.94;15562666;28;20104;-52
2023/09/26 09:30:39;;;;;;;14.65;12.50;;;;;;;21.75;57.73;101919.75;15563161;28;20400;-52
2023/09/26 09:38:12;;;;;;;12.38;10.85;;;;;;;22.12;57.30;101920.72;15561339;28;20045;-53
2023/09/26 09:45:49;;;;;;;13.77;10.55;;;;;;;22.80;56.22;101906.47;15562757;28;20050;-54
2023/09/26 09:53:25;;;;;;;11.88;9.70;;;;;;;23.27;53.88;101894.72;15562467;28;20048;-51
2023/09/26 10:01:03;;;;;;;11.88;8.52;;;;;;;23.74;51.20;101880.94;15559775;28;20042;-53
2023/09/26 10:08:38;;;;;;;10.15;8.35;;;;;;;24.55;49.90;101876.63;15559765;28;20042;-50
2023/09/26 10:16:17;;;;;;;8.65;7.20;;;;;;;24.15;50.16;101886.47;15560621;28;20061;-52
2023/09/26 10:24:26;;;;;;;9.63;7.60;;;;;;;25.20;47.84;101869.31;15559744;28;20458;-51
2023/09/26 10:32:04;;;;;;;10.15;6.65;;;;;;;25.55;45.43;101845.50;15558574;28;20034;-55
2023/09/26 10:39:40;;;;;;;10.18;6.63;;;;;;;25.67;46.17;101841.31;15557980;28;20077;-51
2023/09/26 10:47:15;;;;;;;10.75;7.78;;;;;;;25.59;46.36;101839.16;15555003;28;20096;-52
2023/09/26 10:54:48;;;;;;;10.10;6.97;;;;;;;26.53;45.12;101829.91;15557195;28;20591;-53
2023/09/26 11:02:25;;;;;;;7.90;6.88;;;;;;;26.52;45.01;101822.75;15556375;28;20096;-56
2023/09/26 11:09:58;;;;;;;9.32;6.32;;;;;;;26.49;45.58;101826.09;15558350;28;20104;-53
2023/09/26 11:17:33;;;;;;;9.98;6.32;;;;;;;27.11;43.99;101822.38;15557165;28;20053;-49
2023/09/26 11:25:08;;;;;;;10.95;5.47;;;;;;;27.36;44.00;101810.16;15555953;28;20407;-52
2023/09/26 11:32:45;;;;;;;9.88;6.07;;;;;;;27.32;44.17;101808.31;15555881;28;20045;-50
2023/09/26 11:40:25;;;;;;;8.88;5.20;;;;;;;27.28;43.53;101798.97;15555446;28;20049;-50
2023/09/26 11:48:01;;;;;;;8.20;5.78;;;;;;;26.84;44.01;101792.66;15556282;28;20133;-55
2023/09/26 11:55:35;;;;;;;9.93;5.82;;;;;;;27.64;42.35;101780.78;15555809;28;20079;-52
2023/09/26 12:03:10;;;;;;;13.18;5.88;;;;;;;27.78;42.24;101769.84;15551283;28;20357;-54
2023/09/26 12:10:43;;;;;;;9.27;5.55;;;;;;;27.43;43.27;101769.28;15553260;28;20046;-52
2023/09/26 12:18:17;;;;;;;7.82;5.50;;;;;;;27.91;41.85;101755.28;15554663;28;20052;-47
2023/09/26 12:25:52;;;;;;;8.35;5.10;;;;;;;28.02;42.13;101755.09;15554360;28;20430;-47
2023/09/26 12:33:29;;;;;;;9.95;4.70;;;;;;;28.44;41.46;101738.28;15553642;28;20042;-48
2023/09/26 12:41:06;;;;;;;6.85;4.60;;;;;;;27.50;42.43;101737.72;15519048;28;20042;-48
2023/09/26 12:48:40;;;;;;;9.65;5.70;;;;;;;27.17;43.30;101740.44;15543853;28;20491;-51
2023/09/26 12:56:13;;;;;;;7.40;5.00;;;;;;;27.01;43.41;101728.78;15563378;28;20130;-54
2023/09/26 13:03:48;;;;;;;10.65;5.03;;;;;;;27.46;43.00;101716.25;15564813;28;20733;-55
2023/09/26 13:11:21;;;;;;;9.02;4.78;;;;;;;28.35;40.98;101714.44;15546934;28;20042;-54
2023/09/26 13:18:57;;;;;;;8.05;4.80;;;;;;;27.40;43.03;101694.59;15561467;28;20046;-54
2023/09/26 13:26:31;;;;;;;9.68;4.40;;;;;;;27.57;43.00;101691.28;15563823;28;20084;-52
2023/09/26 13:34:06;;;;;;;9.57;4.80;;;;;;;27.45;42.98;101684.28;15542511;28;20077;-51
2023/09/26 13:41:39;;;;;;;12.05;5.00;;;;;;;25.86;46.57;101676.44;15561384;28;20046;-53
2023/09/26 13:49:16;;;;;;;10.98;5.30;;;;;;;25.44;48.27;101679.81;15544511;28;20054;-55
2023/09/26 13:56:50;;;;;;;12.05;5.10;;;;;;;25.77;48.15;101682.84;15541436;28;20084;-51
2023/09/26 14:04:26;;;;;;;11.77;5.45;;;;;;;25.39;48.99;101672.44;15561648;28;20042;-53
2023/09/26 14:12:03;;;;;;;10.43;6.07;;;;;;;24.97;49.45;101674.91;15561099;28;20100;-51
2023/09/26 14:19:38;;;;;;;10.30;5.60;;;;;;;25.27;48.64;101674.72;15550911;28;20078;-51
2023/09/26 14:27:11;;;;;;;11.80;6.03;;;;;;;25.77;48.02;101667.16;15542719;28;20042;-49
2023/09/26 14:34:46;;;;;;;13.52;5.93;;;;;;;25.28;48.67;101657.13;15559776;28;20038;-52
2023/09/26 14:42:19;;;;;;;9.85;5.63;;;;;;;25.08;48.91;101660.00;15559193;28;20038;-53
2023/09/26 14:49:53;;;;;;;14.00;6.20;;;;;;;24.79;49.49;101663.47;15541803;28;20487;-51
2023/09/26 14:57:26;;;;;;;10.38;6.10;;;;;;;25.08;48.26;101657.28;15538799;28;20072;-53
2023/09/26 15:05:01;;;;;;;9.25;5.72;;;;;;;25.04;49.66;101650.66;15558093;28;20089;-50
2023/09/26 15:12:45;;;;;;;11.32;6.00;;;;;;;25.22;48.51;101649.19;15550345;28;20415;-55
2023/09/26 15:20:20;;;;;;;12.15;5.90;;;;;;;25.34;48.50;101647.75;15522780;28;20421;-51
2023/09/26 15:27:54;;;;;;;9.15;6.28;;;;;;;25.09;48.60;101645.19;15539180;28;20041;-50
2023/09/26 15:35:39;;;;;;;8.82;6.13;;;;;;;25.18;48.61;101635.22;15793828;27;20447;-50
2023/09/26 15:43:12;;;;;;;12.18;6.03;;;;;;;25.29;48.54;101633.22;15745909;28;20367;-53
2023/09/26 15:50:47;;;;;;;11.63;6.07;;;;;;;25.51;47.64;101638.22;15728419;28;20053;-46
2023/09/26 15:58:20;;;;;;;47.63;28.20;;;;;;;25.35;48.70;101638.38;15729997;28;20068;-47
2023/09/26 16:05:56;;;;;;;10.02;7.18;;;;;;;25.34;49.64;101635.94;15728488;28;20469;-49
2023/09/26 16:13:30;;;;;;;11.52;6.55;;;;;;;24.92;50.64;101635.38;15728633;28;20409;-48
2023/09/26 16:21:05;;;;;;;10.02;6.13;;;;;;;24.93;51.61;101636.19;15728983;28;20044;-51
2023/09/26 16:28:38;;;;;;;10.30;6.72;;;;;;;24.64;51.47;101647.91;15728810;28;20041;-51
2023/09/26 16:36:18;;;;;;;16.20;7.20;;;;;;;24.39;52.84;101643.38;15727346;28;20071;-50
2023/09/26 16:43:51;;;;;;;10.75;6.68;;;;;;;24.05;53.63;101647.81;15701941;28;20494;-47
2023/09/26 16:51:26;;;;;;;14.43;6.85;;;;;;;23.80;53.96;101657.75;15685114;28;20033;-52
2023/09/26 16:58:59;;;;;;;12.27;7.15;;;;;;;23.52;54.50;101650.09;15684605;28;20045;-47
2023/09/26 17:06:34;;;;;;;10.93;7.22;;;;;;;23.62;54.44;101656.38;15684463;28;20083;-50
2023/09/26 17:14:08;;;;;;;9.85;7.47;;;;;;;23.53;54.98;101658.03;15681541;28;20056;-49
2023/09/26 17:21:43;;;;;;;9.90;7.72;;;;;;;23.32;55.65;101668.19;15683140;28;20517;-51
2023/09/26 17:29:16;;;;;;;11.85;8.10;;;;;;;22.96;56.86;101674.69;15682387;28;20052;-48
2023/09/26 17:36:51;;;;;;;13.70;7.95;;;;;;;22.83;57.16;101678.72;15681239;28;20059;-51
2023/09/26 17:44:24;;;;;;;11.52;7.85;;;;;;;22.97;57.07;101676.34;15681119;28;20037;-46
2023/09/26 17:51:59;;;;;;;11.27;8.27;;;;;;;22.93;56.86;101676.03;15683808;28;20519;-46
2023/09/26 17:59:33;;;;;;;15.02;9.52;;;;;;;22.82;56.73;101674.34;15681256;28;20131;-47
2023/09/26 18:07:07;;;;;;;20.67;10.77;;;;;;;22.66;57.92;101684.41;15704124;28;20041;-51
2023/09/26 18:14:41;;;;;;;11.73;9.80;;;;;;;22.57;57.75;101684.13;15682531;28;20303;-43
2023/09/26 18:22:15;;;;;;;16.45;12.07;;;;;;;22.33;58.60;101691.94;15681227;28;20071;-45
2023/09/26 18:29:49;;;;;;;16.30;11.55;;;;;;;22.17;59.31;101690.22;15679478;28;20144;-46
2023/09/26 18:37:24;;;;;;;13.38;10.57;;;;;;;21.91;61.30;101697.38;15677920;28;20048;-45
2023/09/26 18:44:57;;;;;;;15.45;10.95;;;;;;;21.77;61.62;101702.47;15672937;28;20045;-45
2023/09/26 18:52:31;;;;;;;18.67;10.70;;;;;;;21.74;61.51;101700.28;15675873;28;20056;-44
2023/09/26 19:00:08;;;;;;;18.15;11.80;;;;;;;21.55;61.91;101699.03;15675812;28;20555;-45
2023/09/26 19:07:43;;;;;;;20.27;10.88;;;;;;;21.48;61.44;101693.78;15675022;28;20052;-45
2023/09/26 19:15:16;;;;;;;16.00;10.65;;;;;;;21.44;61.54;101698.09;15671722;28;20044;-48
2023/09/26 19:22:51;;;;;;;14.82;10.27;;;;;;;21.29;61.52;101692.47;15691102;28;20132;-45
2023/09/26 19:30:28;;;;;;;15.07;10.45;;;;;;;21.30;61.35;101686.75;15675386;28;20052;-46
2023/09/26 19:38:03;;;;;;;19.58;12.70;;;;;;;20.98;62.27;101688.59;15678113;28;20049;-46
2023/09/26 19:45:37;;;;;;;19.35;11.15;;;;;;;20.95;62.48;101683.69;15664960;28;20037;-47
2023/09/26 19:53:12;;;;;;;14.68;11.07;;;;;;;20.99;61.97;101688.38;15675987;28;20041;-45
2023/09/26 20:00:45;;;;;;;14.95;10.88;;;;;;;20.86;62.48;101683.31;15674583;28;20077;-44
2023/09/26 20:08:20;;;;;;;16.80;10.77;;;;;;;20.83;62.47;101679.19;15672903;28;20049;-45
2023/09/26 20:15:54;;;;;;;17.77;12.05;;;;;;;20.24;64.55;101675.44;15677349;28;20044;-45
2023/09/26 20:23:29;;;;;;;16.13;11.88;;;;;;;20.56;64.02;101668.25;15686117;28;20552;-46
2023/09/26 20:31:03;;;;;;;16.17;11.57;;;;;;;20.55;63.58;101660.28;15684289;28;20066;-44
2023/09/26 20:38:37;;;;;;;18.70;12.85;;;;;;;20.41;64.21;101656.28;15686324;28;20390;-45
2023/09/26 20:46:10;;;;;;;36.90;23.80;;;;;;;19.95;66.35;101664.63;15686001;28;20443;-45
2023/09/26 20:53:45;;;;;;;16.70;13.60;;;;;;;20.45;64.49;101669.16;15698575;28;20048;-45
2023/09/26 21:01:18;;;;;;;17.20;13.10;;;;;;;20.07;65.44;101667.28;15684249;28;20132;-45
2023/09/26 21:08:53;;;;;;;21.10;13.93;;;;;;;20.12;65.31;101670.06;15685269;28;20496;-45
2023/09/26 21:16:27;;;;;;;18.92;13.13;;;;;;;20.13;65.44;101663.53;15682445;28;20033;-44
2023/09/26 21:24:02;;;;;;;18.75;14.48;;;;;;;20.07;65.34;101657.19;15683150;28;20372;-46
2023/09/26 21:31:36;;;;;;;21.13;14.05;;;;;;;19.86;65.76;101667.00;15697806;28;20378;-45
2023/09/26 21:39:12;;;;;;;26.30;14.98;;;;;;;19.61;66.16;101670.13;15682408;28;20037;-48
2023/09/26 21:46:46;;;;;;;18.92;14.40;;;;;;;19.48;66.52;101666.88;15682193;28;20044;-47
2023/09/26 21:54:20;;;;;;;20.30;15.32;;;;;;;19.22;67.33;101660.19;15681251;28;20124;-44
2023/09/26 22:01:54;;;;;;;23.67;15.85;;;;;;;19.08;67.64;101662.38;15680211;28;20178;-48
2023/09/26 22:09:28;;;;;;;20.92;15.70;;;;;;;18.85;68.03;101676.91;15679340;28;20057;-48
2023/09/26 22:17:20;;;;;;;20.30;15.43;;;;;;;18.69;68.08;101672.22;15678568;28;20049;-45
2023/09/26 22:24:54;;;;;;;23.60;15.65;;;;;;;18.50;68.72;101666.09;15679847;28;20045;-45
2023/09/26 22:32:29;;;;;;;22.92;15.20;;;;;;;18.38;68.74;101658.00;15678709;28;20593;-45
2023/09/26 22:40:06;;;;;;;20.83;16.05;;;;;;;18.21;68.84;101654.34;15677834;28;20052;-44
2023/09/26 22:47:39;;;;;;;21.17;16.08;;;;;;;18.06;69.17;101658.38;15678272;28;20055;-45
2023/09/26 22:55:14;;;;;;;22.95;15.80;;;;;;;17.95;69.32;101669.25;15677732;28;20444;-44
2023/09/26 23:02:47;;;;;;;23.95;16.60;;;;;;;17.75;68.94;101670.41;15682545;28;20362;-45
2023/09/26 23:10:21;;;;;;;26.75;18.05;;;;;;;17.65;69.66;101674.75;15676947;28;20049;-45
2023/09/26 23:17:55;;;;;;;23.40;16.98;;;;;;;17.59;69.80;101674.63;15677184;28;20056;-44
2023/09/26 23:25:30;;;;;;;23.05;16.23;;;;;;;17.43;69.80;101660.91;15677055;28;20071;-44
2023/09/26 23:33:04;;;;;;;19.75;14.30;;;;;;;17.35;69.35;101664.81;15676024;28;20033;-45
2023/09/26 23:40:38;;;;;;;19.30;15.40;;;;;;;17.22;69.85;101663.13;15676682;28;20130;-44
2023/09/26 23:48:12;;;;;;;25.60;15.82;;;;;;;17.00;70.56;101667.41;15675854;28;20055;-45
2023/09/26 23:55:47;;;;;;;23.30;17.02;;;;;;;16.98;70.21;101681.19;15685175;28;20116;-47
